sensor_id;sensor_type;location;lat;lon;timestamp;pressure;altitude;pressure_sealevel;temperature;humidity
69879;BME280;57161;43.136;24.706;2023-02-03T00:01:30;99463.72;;;4.17;60.16
69879;BME280;57161;43.136;24.706;2023-02-03T00:03:56;99464.94;;;4.10;61.04
69879;BME280;57161;43.136;24.706;2023-02-03T00:06:21;99463.44;;;4.09;60.01
69879;BME280;57161;43.136;24.706;2023-02-03T00:08:47;99465.63;;;4.00;60.51
69879;BME280;57161;43.136;24.706;2023-02-03T00:11:13;99470.72;;;4.07;60.51
69879;BME280;57161;43.136;24.706;2023-02-03T00:13:39;99480.47;;;4.02;60.71
69879;BME280;57161;43.136;24.706;2023-02-03T00:16:04;99474.38;;;3.92;60.80
69879;BME280;57161;43.136;24.706;2023-02-03T00:18:32;99485.81;;;4.11;60.93
69879;BME280;57161;43.136;24.706;2023-02-03T00:20:57;99480.03;;;4.09;60.56
69879;BME280;57161;43.136;24.706;2023-02-03T00:23:23;99479.97;;;4.04;60.17
69879;BME280;57161;43.136;24.706;2023-02-03T00:25:50;99490.84;;;4.13;59.65
69879;BME280;57161;43.136;24.706;2023-02-03T00:28:16;99477.66;;;3.97;59.78
69879;BME280;57161;43.136;24.706;2023-02-03T00:30:42;99483.75;;;4.06;60.00
69879;BME280;57161;43.136;24.706;2023-02-03T00:33:07;99498.94;;;4.22;60.01
69879;BME280;57161;43.136;24.706;2023-02-03T00:35:32;99489.63;;;4.19;59.74
69879;BME280;57161;43.136;24.706;2023-02-03T00:37:58;99503.28;;;4.29;59.55
69879;BME280;57161;43.136;24.706;2023-02-03T00:40:25;99504.00;;;4.24;59.99
69879;BME280;57161;43.136;24.706;2023-02-03T00:42:51;99514.88;;;4.33;59.35
69879;BME280;57161;43.136;24.706;2023-02-03T00:45:17;99506.81;;;4.29;59.39
69879;BME280;57161;43.136;24.706;2023-02-03T00:47:42;99510.31;;;4.24;59.85
69879;BME280;57161;43.136;24.706;2023-02-03T00:50:08;99510.31;;;4.30;59.11
69879;BME280;57161;43.136;24.706;2023-02-03T00:52:34;99517.13;;;4.29;59.92
69879;BME280;57161;43.136;24.706;2023-02-03T00:55:00;99510.56;;;4.26;59.61
69879;BME280;57161;43.136;24.706;2023-02-03T00:57:25;99513.34;;;4.32;59.76
69879;BME280;57161;43.136;24.706;2023-02-03T00:59:51;99514.88;;;4.38;59.35
69879;BME280;57161;43.136;24.706;2023-02-03T01:02:16;99520.16;;;4.36;59.24
69879;BME280;57161;43.136;24.706;2023-02-03T01:04:42;99519.38;;;4.30;59.93
69879;BME280;57161;43.136;24.706;2023-02-03T01:07:08;99530.69;;;4.27;60.13
69879;BME280;57161;43.136;24.706;2023-02-03T01:09:35;99529.88;;;4.20;60.32
69879;BME280;57161;43.136;24.706;2023-02-03T01:12:01;99534.16;;;4.21;60.19
69879;BME280;57161;43.136;24.706;2023-02-03T01:14:26;99519.78;;;4.17;60.10
69879;BME280;57161;43.136;24.706;2023-02-03T01:16:52;99512.25;;;4.18;60.32
69879;BME280;57161;43.136;24.706;2023-02-03T01:19:17;99489.88;;;4.16;60.25
69879;BME280;57161;43.136;24.706;2023-02-03T01:21:43;99508.72;;;4.17;59.96
69879;BME280;57161;43.136;24.706;2023-02-03T01:24:08;99468.13;;;3.98;59.92
69879;BME280;57161;43.136;24.706;2023-02-03T01:26:34;99486.84;;;4.14;59.91
69879;BME280;57161;43.136;24.706;2023-02-03T01:29:00;99516.31;;;4.22;60.22
69879;BME280;57161;43.136;24.706;2023-02-03T01:31:27;99519.06;;;4.22;59.99
69879;BME280;57161;43.136;24.706;2023-02-03T01:33:53;99508.50;;;4.21;60.64
69879;BME280;57161;43.136;24.706;2023-02-03T01:36:22;99508.34;;;4.36;59.76
69879;BME280;57161;43.136;24.706;2023-02-03T01:38:48;99513.84;;;4.30;60.22
69879;BME280;57161;43.136;24.706;2023-02-03T01:41:19;99512.63;;;4.37;60.23
69879;BME280;57161;43.136;24.706;2023-02-03T01:43:48;99502.97;;;4.21;59.91
69879;BME280;57161;43.136;24.706;2023-02-03T01:49:21;99521.16;;;4.33;60.82
69879;BME280;57161;43.136;24.706;2023-02-03T01:51:49;99514.44;;;4.40;60.12
69879;BME280;57161;43.136;24.706;2023-02-03T01:54:22;99513.19;;;4.46;59.67
69879;BME280;57161;43.136;24.706;2023-02-03T01:56:53;99507.06;;;4.31;60.34
69879;BME280;57161;43.136;24.706;2023-02-03T01:59:21;99524.75;;;4.45;60.35
69879;BME280;57161;43.136;24.706;2023-02-03T02:01:49;99525.28;;;4.49;59.86
69879;BME280;57161;43.136;24.706;2023-02-03T02:04:16;99515.69;;;4.44;60.15
69879;BME280;57161;43.136;24.706;2023-02-03T02:06:41;99516.91;;;4.38;60.43
69879;BME280;57161;43.136;24.706;2023-02-03T02:09:07;99509.84;;;4.31;60.60
69879;BME280;57161;43.136;24.706;2023-02-03T02:11:33;99509.19;;;4.47;60.13
69879;BME280;57161;43.136;24.706;2023-02-03T02:14:00;99530.06;;;4.54;60.35
69879;BME280;57161;43.136;24.706;2023-02-03T02:16:52;99533.09;;;4.50;60.21
69879;BME280;57161;43.136;24.706;2023-02-03T02:22:20;99543.91;;;4.54;60.56
69879;BME280;57161;43.136;24.706;2023-02-03T02:30:35;99537.91;;;4.56;60.81
69879;BME280;57161;43.136;24.706;2023-02-03T02:33:16;99548.00;;;4.59;61.20
69879;BME280;57161;43.136;24.706;2023-02-03T02:36:06;99549.25;;;4.58;60.69
69879;BME280;57161;43.136;24.706;2023-02-03T02:38:43;99553.28;;;4.62;60.66
69879;BME280;57161;43.136;24.706;2023-02-03T02:49:29;99549.53;;;4.71;60.64
69879;BME280;57161;43.136;24.706;2023-02-03T02:52:02;99551.78;;;4.61;60.81
69879;BME280;57161;43.136;24.706;2023-02-03T02:54:30;99541.22;;;4.65;60.93
69879;BME280;57161;43.136;24.706;2023-02-03T02:56:59;99543.72;;;4.63;61.39
69879;BME280;57161;43.136;24.706;2023-02-03T02:59:26;99539.63;;;4.53;61.38
69879;BME280;57161;43.136;24.706;2023-02-03T03:01:52;99545.16;;;4.53;61.89
69879;BME280;57161;43.136;24.706;2023-02-03T03:04:22;99545.44;;;4.55;62.00
69879;BME280;57161;43.136;24.706;2023-02-03T03:07:02;99516.19;;;4.43;61.60
69879;BME280;57161;43.136;24.706;2023-02-03T03:09:53;99542.88;;;4.46;61.87
69879;BME280;57161;43.136;24.706;2023-02-03T03:12:33;99522.75;;;4.45;62.30
69879;BME280;57161;43.136;24.706;2023-02-03T03:15:07;99523.69;;;4.37;62.46
69879;BME280;57161;43.136;24.706;2023-02-03T03:17:41;99525.50;;;4.40;62.42
69879;BME280;57161;43.136;24.706;2023-02-03T03:20:11;99504.53;;;4.28;63.35
69879;BME280;57161;43.136;24.706;2023-02-03T03:22:48;99515.06;;;4.24;63.42
69879;BME280;57161;43.136;24.706;2023-02-03T03:25:18;99530.91;;;4.23;63.59
69879;BME280;57161;43.136;24.706;2023-02-03T03:27:58;99543.00;;;4.26;64.20
69879;BME280;57161;43.136;24.706;2023-02-03T03:30:32;99524.06;;;4.18;64.60
69879;BME280;57161;43.136;24.706;2023-02-03T03:32:58;99547.28;;;4.27;65.02
69879;BME280;57161;43.136;24.706;2023-02-03T03:35:30;99553.50;;;4.21;65.56
69879;BME280;57161;43.136;24.706;2023-02-03T03:38:22;99551.28;;;4.26;65.71
69879;BME280;57161;43.136;24.706;2023-02-03T03:40:52;99547.72;;;4.19;65.65
69879;BME280;57161;43.136;24.706;2023-02-03T03:43:22;99525.78;;;4.10;65.51
69879;BME280;57161;43.136;24.706;2023-02-03T03:45:59;99558.56;;;4.23;65.61
69879;BME280;57161;43.136;24.706;2023-02-03T03:48:33;99539.56;;;4.05;66.08
69879;BME280;57161;43.136;24.706;2023-02-03T03:51:06;99552.94;;;4.12;66.05
69879;BME280;57161;43.136;24.706;2023-02-03T03:53:35;99560.25;;;4.15;66.28
69879;BME280;57161;43.136;24.706;2023-02-03T03:56:05;99566.19;;;4.02;67.00
69879;BME280;57161;43.136;24.706;2023-02-03T03:58:35;99556.63;;;4.03;67.29
69879;BME280;57161;43.136;24.706;2023-02-03T04:01:05;99553.44;;;4.10;67.03
69879;BME280;57161;43.136;24.706;2023-02-03T04:03:38;99537.09;;;3.81;67.29
69879;BME280;57161;43.136;24.706;2023-02-03T04:06:05;99570.16;;;3.96;67.90
69879;BME280;57161;43.136;24.706;2023-02-03T04:08:31;99397.63;;;2.87;67.66
69879;BME280;57161;43.136;24.706;2023-02-03T04:10:56;99564.13;;;3.97;67.92
69879;BME280;57161;43.136;24.706;2023-02-03T04:13:22;99573.41;;;3.94;68.43
69879;BME280;57161;43.136;24.706;2023-02-03T04:15:47;99591.44;;;3.89;68.41
69879;BME280;57161;43.136;24.706;2023-02-03T04:18:14;99600.47;;;3.84;69.10
69879;BME280;57161;43.136;24.706;2023-02-03T04:20:40;99592.44;;;3.86;69.00
69879;BME280;57161;43.136;24.706;2023-02-03T04:23:06;99599.22;;;3.85;68.50
69879;BME280;57161;43.136;24.706;2023-02-03T04:25:32;99619.84;;;3.90;68.36
69879;BME280;57161;43.136;24.706;2023-02-03T04:27:58;99604.97;;;3.82;68.63
69879;BME280;57161;43.136;24.706;2023-02-03T04:30:25;99616.56;;;3.86;68.62
69879;BME280;57161;43.136;24.706;2023-02-03T04:32:50;99603.16;;;3.79;68.01
69879;BME280;57161;43.136;24.706;2023-02-03T04:35:16;99615.16;;;3.96;67.58
69879;BME280;57161;43.136;24.706;2023-02-03T04:37:42;99602.31;;;3.93;67.76
69879;BME280;57161;43.136;24.706;2023-02-03T04:40:08;99623.31;;;3.85;68.11
69879;BME280;57161;43.136;24.706;2023-02-03T04:42:36;99626.63;;;3.89;68.07
69879;BME280;57161;43.136;24.706;2023-02-03T04:45:02;99634.78;;;3.98;68.17
69879;BME280;57161;43.136;24.706;2023-02-03T04:47:27;99633.53;;;3.99;68.24
69879;BME280;57161;43.136;24.706;2023-02-03T04:49:53;99618.81;;;3.87;67.60
69879;BME280;57161;43.136;24.706;2023-02-03T04:52:18;99660.19;;;4.02;67.56
69879;BME280;57161;43.136;24.706;2023-02-03T04:54:44;99655.63;;;3.99;67.55
69879;BME280;57161;43.136;24.706;2023-02-03T04:57:09;99648.06;;;3.94;67.99
69879;BME280;57161;43.136;24.706;2023-02-03T04:59:35;99663.94;;;3.99;67.69
69879;BME280;57161;43.136;24.706;2023-02-03T05:02:01;99671.31;;;4.08;67.77
69879;BME280;57161;43.136;24.706;2023-02-03T05:04:28;99666.56;;;4.08;67.54
69879;BME280;57161;43.136;24.706;2023-02-03T05:06:53;99668.06;;;4.09;67.63
69879;BME280;57161;43.136;24.706;2023-02-03T05:09:20;99688.13;;;4.04;68.00
69879;BME280;57161;43.136;24.706;2023-02-03T05:11:45;99675.13;;;4.10;67.82
69879;BME280;57161;43.136;24.706;2023-02-03T05:14:11;99684.84;;;4.06;67.46
69879;BME280;57161;43.136;24.706;2023-02-03T05:16:36;99647.31;;;3.73;67.80
69879;BME280;57161;43.136;24.706;2023-02-03T05:19:02;99684.84;;;4.06;67.94
69879;BME280;57161;43.136;24.706;2023-02-03T05:21:27;99686.59;;;4.03;67.79
69879;BME280;57161;43.136;24.706;2023-02-03T05:23:53;99697.16;;;4.05;68.02
69879;BME280;57161;43.136;24.706;2023-02-03T05:26:18;99676.13;;;3.87;67.93
69879;BME280;57161;43.136;24.706;2023-02-03T05:28:44;99678.88;;;3.87;68.40
69879;BME280;57161;43.136;24.706;2023-02-03T05:31:09;99703.34;;;3.94;68.62
69879;BME280;57161;43.136;24.706;2023-02-03T05:33:35;99700.63;;;4.00;68.53
69879;BME280;57161;43.136;24.706;2023-02-03T05:36:00;99704.44;;;4.02;68.31
69879;BME280;57161;43.136;24.706;2023-02-03T05:38:26;99690.91;;;3.84;68.78
69879;BME280;57161;43.136;24.706;2023-02-03T05:40:51;99703.56;;;3.90;69.25
69879;BME280;57161;43.136;24.706;2023-02-03T05:43:35;99707.84;;;3.91;69.59
69879;BME280;57161;43.136;24.706;2023-02-03T05:46:02;99730.16;;;3.88;70.10
69879;BME280;57161;43.136;24.706;2023-02-03T05:48:29;99736.94;;;3.87;70.27
69879;BME280;57161;43.136;24.706;2023-02-03T05:50:54;99743.56;;;3.95;70.31
69879;BME280;57161;43.136;24.706;2023-02-03T05:53:20;99741.78;;;3.92;70.78
69879;BME280;57161;43.136;24.706;2023-02-03T05:55:46;99740.69;;;3.84;71.27
69879;BME280;57161;43.136;24.706;2023-02-03T05:58:11;99756.38;;;3.92;71.47
69879;BME280;57161;43.136;24.706;2023-02-03T06:00:37;99753.59;;;3.92;72.39
69879;BME280;57161;43.136;24.706;2023-02-03T06:03:02;99736.66;;;3.85;72.61
69879;BME280;57161;43.136;24.706;2023-02-03T06:05:29;99748.06;;;3.72;72.74
69879;BME280;57161;43.136;24.706;2023-02-03T06:07:55;99738.06;;;3.75;72.47
69879;BME280;57161;43.136;24.706;2023-02-03T06:10:21;99750.50;;;3.65;72.38
69879;BME280;57161;43.136;24.706;2023-02-03T06:12:47;99767.41;;;3.72;71.69
69879;BME280;57161;43.136;24.706;2023-02-03T06:15:13;99759.41;;;3.74;71.40
69879;BME280;57161;43.136;24.706;2023-02-03T06:17:39;99753.41;;;3.76;71.67
69879;BME280;57161;43.136;24.706;2023-02-03T06:20:06;99747.38;;;3.77;70.94
69879;BME280;57161;43.136;24.706;2023-02-03T06:22:32;99757.25;;;3.84;70.79
69879;BME280;57161;43.136;24.706;2023-02-03T06:24:58;99775.03;;;3.77;70.97
69879;BME280;57161;43.136;24.706;2023-02-03T06:27:23;99774.53;;;3.79;70.92
69879;BME280;57161;43.136;24.706;2023-02-03T06:29:49;99774.53;;;3.79;71.17
69879;BME280;57161;43.136;24.706;2023-02-03T06:32:15;99783.59;;;3.79;70.30
69879;BME280;57161;43.136;24.706;2023-02-03T06:34:40;99777.44;;;3.70;70.16
69879;BME280;57161;43.136;24.706;2023-02-03T06:37:06;99788.75;;;3.72;70.09
69879;BME280;57161;43.136;24.706;2023-02-03T06:39:31;99786.41;;;3.65;70.68
69879;BME280;57161;43.136;24.706;2023-02-03T06:41:57;99790.59;;;3.75;70.38
69879;BME280;57161;43.136;24.706;2023-02-03T06:44:22;99786.28;;;3.74;70.43
69879;BME280;57161;43.136;24.706;2023-02-03T06:46:48;99795.69;;;3.82;69.88
69879;BME280;57161;43.136;24.706;2023-02-03T06:49:15;99817.72;;;3.76;70.49
69879;BME280;57161;43.136;24.706;2023-02-03T06:51:42;99805.22;;;3.81;70.31
69879;BME280;57161;43.136;24.706;2023-02-03T06:54:09;99813.31;;;3.84;70.24
69879;BME280;57161;43.136;24.706;2023-02-03T06:56:35;99815.19;;;3.93;69.69
69879;BME280;57161;43.136;24.706;2023-02-03T06:59:00;99813.47;;;3.96;70.03
69879;BME280;57161;43.136;24.706;2023-02-03T07:01:26;99831.84;;;3.99;69.34
69879;BME280;57161;43.136;24.706;2023-02-03T07:03:54;99821.13;;;4.06;69.16
69879;BME280;57161;43.136;24.706;2023-02-03T07:06:22;99822.19;;;4.09;69.04
69879;BME280;57161;43.136;24.706;2023-02-03T07:08:48;99839.09;;;4.16;68.38
69879;BME280;57161;43.136;24.706;2023-02-03T07:11:13;99838.28;;;4.10;68.19
69879;BME280;57161;43.136;24.706;2023-02-03T07:13:39;99811.19;;;3.94;67.54
69879;BME280;57161;43.136;24.706;2023-02-03T07:16:05;99843.53;;;4.08;68.63
69879;BME280;57161;43.136;24.706;2023-02-03T07:18:30;99848.22;;;4.02;68.29
69879;BME280;57161;43.136;24.706;2023-02-03T07:20:56;99846.00;;;4.06;68.30
69879;BME280;57161;43.136;24.706;2023-02-03T07:23:21;99837.44;;;4.04;67.79
69879;BME280;57161;43.136;24.706;2023-02-03T07:25:48;99849.41;;;4.16;67.71
69879;BME280;57161;43.136;24.706;2023-02-03T07:28:13;99839.09;;;4.16;67.38
69879;BME280;57161;43.136;24.706;2023-02-03T07:30:39;99860.06;;;4.23;66.74
69879;BME280;57161;43.136;24.706;2023-02-03T07:33:04;99799.91;;;3.77;67.45
69879;BME280;57161;43.136;24.706;2023-02-03T07:35:30;99805.66;;;3.94;67.15
69879;BME280;57161;43.136;24.706;2023-02-03T07:37:55;99841.88;;;4.16;66.87
69879;BME280;57161;43.136;24.706;2023-02-03T07:40:21;99857.56;;;4.25;66.96
69879;BME280;57161;43.136;24.706;2023-02-03T07:42:47;99855.13;;;4.33;67.15
69879;BME280;57161;43.136;24.706;2023-02-03T07:45:15;99846.13;;;4.38;66.79
69879;BME280;57161;43.136;24.706;2023-02-03T07:47:42;99847.94;;;4.41;66.62
69879;BME280;57161;43.136;24.706;2023-02-03T07:50:09;99852.91;;;4.37;66.68
69879;BME280;57161;43.136;24.706;2023-02-03T07:52:35;99853.19;;;4.39;66.50
69879;BME280;57161;43.136;24.706;2023-02-03T07:55:01;99847.47;;;4.42;66.44
69879;BME280;57161;43.136;24.706;2023-02-03T07:57:26;99851.25;;;4.45;66.09
69879;BME280;57161;43.136;24.706;2023-02-03T07:59:52;99860.09;;;4.49;66.06
69879;BME280;57161;43.136;24.706;2023-02-03T08:02:17;99861.41;;;4.53;65.74
69879;BME280;57161;43.136;24.706;2023-02-03T08:04:43;99866.00;;;4.57;65.43
69879;BME280;57161;43.136;24.706;2023-02-03T08:07:08;99860.72;;;4.59;65.27
69879;BME280;57161;43.136;24.706;2023-02-03T08:09:34;99859.75;;;4.62;65.17
69879;BME280;57161;43.136;24.706;2023-02-03T08:11:59;99863.00;;;4.60;65.14
69879;BME280;57161;43.136;24.706;2023-02-03T08:14:24;99864.38;;;4.50;65.08
69879;BME280;57161;43.136;24.706;2023-02-03T08:16:50;99857.13;;;4.52;65.17
69879;BME280;57161;43.136;24.706;2023-02-03T08:19:15;99863.50;;;4.59;64.62
69879;BME280;57161;43.136;24.706;2023-02-03T08:21:41;99858.22;;;4.61;64.89
69879;BME280;57161;43.136;24.706;2023-02-03T08:24:07;99854.91;;;4.57;64.99
69879;BME280;57161;43.136;24.706;2023-02-03T08:26:35;99846.44;;;4.66;64.46
69879;BME280;57161;43.136;24.706;2023-02-03T08:29:00;99840.63;;;4.64;64.49
69879;BME280;57161;43.136;24.706;2023-02-03T08:31:26;99845.47;;;4.69;64.64
69879;BME280;57161;43.136;24.706;2023-02-03T08:33:51;99860.53;;;4.88;64.19
69879;BME280;57161;43.136;24.706;2023-02-03T08:36:17;99851.44;;;4.88;63.43
69879;BME280;57161;43.136;24.706;2023-02-03T08:38:42;99853.06;;;5.00;63.90
69879;BME280;57161;43.136;24.706;2023-02-03T08:41:10;99868.00;;;5.08;63.05
69879;BME280;57161;43.136;24.706;2023-02-03T08:43:36;99883.00;;;5.22;61.87
69879;BME280;57161;43.136;24.706;2023-02-03T08:46:03;99879.03;;;5.34;61.71
69879;BME280;57161;43.136;24.706;2023-02-03T08:48:29;99871.81;;;5.42;61.52
69879;BME280;57161;43.136;24.706;2023-02-03T08:50:54;99868.69;;;5.29;61.34
69879;BME280;57161;43.136;24.706;2023-02-03T08:53:20;99872.53;;;5.37;61.57
69879;BME280;57161;43.136;24.706;2023-02-03T08:55:45;99884.72;;;5.51;60.87
69879;BME280;57161;43.136;24.706;2023-02-03T08:58:11;99882.03;;;5.62;61.11
69879;BME280;57161;43.136;24.706;2023-02-03T09:00:36;99897.94;;;5.67;60.04
69879;BME280;57161;43.136;24.706;2023-02-03T09:03:02;99888.69;;;5.76;60.04
69879;BME280;57161;43.136;24.706;2023-02-03T09:05:29;99874.06;;;5.75;60.63
69879;BME280;57161;43.136;24.706;2023-02-03T09:07:55;99901.19;;;5.97;60.34
69879;BME280;57161;43.136;24.706;2023-02-03T09:10:20;99890.91;;;6.03;58.94
69879;BME280;57161;43.136;24.706;2023-02-03T09:12:46;99886.38;;;6.06;59.25
69879;BME280;57161;43.136;24.706;2023-02-03T09:15:11;99873.94;;;5.90;58.33
69879;BME280;57161;43.136;24.706;2023-02-03T09:17:37;99882.66;;;5.77;58.54
69879;BME280;57161;43.136;24.706;2023-02-03T09:20:05;99888.31;;;5.94;58.72
69879;BME280;57161;43.136;24.706;2023-02-03T09:22:31;99889.97;;;6.17;57.74
69879;BME280;57161;43.136;24.706;2023-02-03T09:24:57;99873.53;;;6.14;57.53
69879;BME280;57161;43.136;24.706;2023-02-03T09:27:22;99901.84;;;6.23;56.69
69879;BME280;57161;43.136;24.706;2023-02-03T09:29:47;99882.59;;;6.03;56.82
69879;BME280;57161;43.136;24.706;2023-02-03T09:32:13;99895.75;;;6.14;57.25
69879;BME280;57161;43.136;24.706;2023-02-03T09:34:38;99899.53;;;6.16;57.16
69879;BME280;57161;43.136;24.706;2023-02-03T09:37:06;99887.69;;;6.16;56.86
69879;BME280;57161;43.136;24.706;2023-02-03T09:39:31;99897.34;;;6.31;56.56
69879;BME280;57161;43.136;24.706;2023-02-03T09:42:18;99901.63;;;6.32;56.92
69879;BME280;57161;43.136;24.706;2023-02-03T09:45:11;99890.00;;;6.23;56.73
69879;BME280;57161;43.136;24.706;2023-02-03T09:47:41;99892.28;;;6.24;56.10
69879;BME280;57161;43.136;24.706;2023-02-03T09:50:21;99866.03;;;6.20;56.90
69879;BME280;57161;43.136;24.706;2023-02-03T09:52:48;99876.69;;;6.38;57.07
69879;BME280;57161;43.136;24.706;2023-02-03T09:55:37;99875.75;;;6.52;56.78
69879;BME280;57161;43.136;24.706;2023-02-03T10:00:53;99873.47;;;6.51;56.44
69879;BME280;57161;43.136;24.706;2023-02-03T10:06:42;99872.97;;;6.52;55.54
69879;BME280;57161;43.136;24.706;2023-02-03T10:09:38;99863.66;;;6.67;54.98
69879;BME280;57161;43.136;24.706;2023-02-03T10:17:29;99851.06;;;6.77;54.36
69879;BME280;57161;43.136;24.706;2023-02-03T10:22:28;99827.59;;;6.95;54.32
69879;BME280;57161;43.136;24.706;2023-02-03T10:27:40;99839.22;;;7.49;51.51
69879;BME280;57161;43.136;24.706;2023-02-03T10:30:31;99836.97;;;7.19;52.64
69879;BME280;57161;43.136;24.706;2023-02-03T10:33:09;99857.88;;;6.70;52.99
69879;BME280;57161;43.136;24.706;2023-02-03T10:35:48;99839.66;;;6.58;53.51
69879;BME280;57161;43.136;24.706;2023-02-03T10:38:22;99830.22;;;6.33;54.17
69879;BME280;57161;43.136;24.706;2023-02-03T10:40:51;99802.22;;;6.31;54.06
69879;BME280;57161;43.136;24.706;2023-02-03T10:43:17;99829.06;;;6.51;53.68
69879;BME280;57161;43.136;24.706;2023-02-03T10:46:01;99814.13;;;6.37;54.83
69879;BME280;57161;43.136;24.706;2023-02-03T10:48:27;99804.03;;;6.45;53.83
69879;BME280;57161;43.136;24.706;2023-02-03T10:50:53;99824.50;;;6.65;53.67
69879;BME280;57161;43.136;24.706;2023-02-03T10:53:24;99811.66;;;6.67;53.44
69879;BME280;57161;43.136;24.706;2023-02-03T10:56:10;99806.59;;;6.60;53.23
69879;BME280;57161;43.136;24.706;2023-02-03T10:58:44;99789.41;;;6.50;53.55
69879;BME280;57161;43.136;24.706;2023-02-03T11:01:13;99798.19;;;6.32;53.45
69879;BME280;57161;43.136;24.706;2023-02-03T11:03:44;99806.06;;;6.45;53.51
69879;BME280;57161;43.136;24.706;2023-02-03T11:06:18;99816.94;;;6.54;54.03
69879;BME280;57161;43.136;24.706;2023-02-03T11:08:46;99803.06;;;6.59;54.07
69879;BME280;57161;43.136;24.706;2023-02-03T11:11:16;99806.59;;;6.54;53.62
69879;BME280;57161;43.136;24.706;2023-02-03T11:13:45;99803.53;;;6.41;53.13
69879;BME280;57161;43.136;24.706;2023-02-03T11:16:12;99816.84;;;6.26;53.14
69879;BME280;57161;43.136;24.706;2023-02-03T11:26:32;99793.00;;;7.01;52.32
69879;BME280;57161;43.136;24.706;2023-02-03T11:29:01;99788.69;;;7.22;50.92
69879;BME280;57161;43.136;24.706;2023-02-03T11:31:31;99782.38;;;7.11;51.17
69879;BME280;57161;43.136;24.706;2023-02-03T11:34:12;99795.28;;;7.08;51.67
69879;BME280;57161;43.136;24.706;2023-02-03T11:36:40;99797.06;;;7.00;52.09
69879;BME280;57161;43.136;24.706;2023-02-03T11:41:38;99793.25;;;6.86;52.28
69879;BME280;57161;43.136;24.706;2023-02-03T11:44:31;99798.78;;;6.70;51.62
69879;BME280;57161;43.136;24.706;2023-02-03T11:47:06;99789.69;;;6.69;52.43
69879;BME280;57161;43.136;24.706;2023-02-03T12:14:24;99761.41;;;7.15;51.03
69879;BME280;57161;43.136;24.706;2023-02-03T12:22:28;99754.34;;;6.92;50.25
69879;BME280;57161;43.136;24.706;2023-02-03T12:25:29;99728.34;;;6.78;50.52
69879;BME280;57161;43.136;24.706;2023-02-03T12:28:12;99762.69;;;7.20;50.63
69879;BME280;57161;43.136;24.706;2023-02-03T12:30:50;99743.00;;;6.90;49.55
69879;BME280;57161;43.136;24.706;2023-02-03T12:33:21;99749.31;;;6.68;50.28
69879;BME280;57161;43.136;24.706;2023-02-03T12:38:30;99747.03;;;6.89;49.80
69879;BME280;57161;43.136;24.706;2023-02-03T12:40:59;99744.25;;;6.89;50.97
69879;BME280;57161;43.136;24.706;2023-02-03T12:43:38;99746.78;;;6.92;51.14
69879;BME280;57161;43.136;24.706;2023-02-03T12:48:50;99750.06;;;6.85;50.52
69879;BME280;57161;43.136;24.706;2023-02-03T12:53:57;99743.25;;;6.75;49.22
69879;BME280;57161;43.136;24.706;2023-02-03T12:56:39;99722.03;;;6.89;48.89
69879;BME280;57161;43.136;24.706;2023-02-03T12:59:12;99732.88;;;6.98;48.68
69879;BME280;57161;43.136;24.706;2023-02-03T13:01:51;99727.06;;;6.96;48.08
69879;BME280;57161;43.136;24.706;2023-02-03T13:04:47;99711.41;;;7.10;47.74
69879;BME280;57161;43.136;24.706;2023-02-03T13:07:26;99711.66;;;7.06;47.56
69879;BME280;57161;43.136;24.706;2023-02-03T13:10:05;99707.88;;;7.04;47.00
69879;BME280;57161;43.136;24.706;2023-02-03T13:12:44;99729.09;;;7.07;45.68
69879;BME280;57161;43.136;24.706;2023-02-03T13:15:19;99713.19;;;7.07;45.61
69879;BME280;57161;43.136;24.706;2023-02-03T13:20:19;99701.53;;;7.14;46.29
69879;BME280;57161;43.136;24.706;2023-02-03T13:22:45;99710.34;;;7.35;46.80
69879;BME280;57161;43.136;24.706;2023-02-03T13:26:11;99718.44;;;7.39;46.87
69879;BME280;57161;43.136;24.706;2023-02-03T13:41:09;99696.78;;;6.59;48.74
69879;BME280;57161;43.136;24.706;2023-02-03T13:43:46;99673.31;;;6.66;48.97
69879;BME280;57161;43.136;24.706;2023-02-03T13:46:26;99689.97;;;6.77;49.37
69879;BME280;57161;43.136;24.706;2023-02-03T13:48:54;99680.38;;;6.55;50.52
69879;BME280;57161;43.136;24.706;2023-02-03T13:51:24;99697.28;;;6.41;50.33
69879;BME280;57161;43.136;24.706;2023-02-03T13:53:59;99688.94;;;6.18;51.19
69879;BME280;57161;43.136;24.706;2023-02-03T13:56:27;99703.56;;;6.24;50.48
69879;BME280;57161;43.136;24.706;2023-02-03T14:01:42;99699.31;;;6.40;50.45
69879;BME280;57161;43.136;24.706;2023-02-03T14:07:14;99706.88;;;6.45;48.96
69879;BME280;57161;43.136;24.706;2023-02-03T14:12:57;99708.66;;;6.37;47.88
69879;BME280;57161;43.136;24.706;2023-02-03T14:15:28;99709.41;;;6.49;48.14
69879;BME280;57161;43.136;24.706;2023-02-03T14:18:28;99693.25;;;6.58;46.79
69879;BME280;57161;43.136;24.706;2023-02-03T14:20:49;99708.88;;;6.50;47.39
69879;BME280;57161;43.136;24.706;2023-02-03T14:23:21;99706.09;;;6.28;48.62
69879;BME280;57161;43.136;24.706;2023-02-03T14:25:51;99685.63;;;6.09;49.49
69879;BME280;57161;43.136;24.706;2023-02-03T14:28:21;99686.34;;;5.92;49.99
69879;BME280;57161;43.136;24.706;2023-02-03T14:34:03;99695.81;;;5.69;50.97
69879;BME280;57161;43.136;24.706;2023-02-03T14:53:26;99696.13;;;5.82;49.27
69879;BME280;57161;43.136;24.706;2023-02-03T14:58:52;99684.72;;;5.69;49.39
69879;BME280;57161;43.136;24.706;2023-02-03T15:06:45;99684.00;;;5.74;49.12
69879;BME280;57161;43.136;24.706;2023-02-03T15:09:33;99695.81;;;5.69;49.47
69879;BME280;57161;43.136;24.706;2023-02-03T15:12:18;99688.72;;;5.57;48.44
69879;BME280;57161;43.136;24.706;2023-02-03T15:14:44;99664.34;;;5.18;47.00
69879;BME280;57161;43.136;24.706;2023-02-03T15:17:17;99664.09;;;5.16;46.69
69879;BME280;57161;43.136;24.706;2023-02-03T15:19:45;99679.25;;;5.26;45.52
69879;BME280;57161;43.136;24.706;2023-02-03T15:24:46;99685.81;;;5.29;46.12
69879;BME280;57161;43.136;24.706;2023-02-03T15:27:24;99686.56;;;5.29;46.74
69879;BME280;57161;43.136;24.706;2023-02-03T15:29:50;99688.09;;;5.30;45.89
69879;BME280;57161;43.136;24.706;2023-02-03T15:32:23;99670.94;;;5.26;45.79